Route Details

Aircraft Information
Group: North America Fleet
Types: B738, B752, B762, B763
Route Data
Distance: 794nm
Duration: 2h 29m
Origin METAR: KIAH 171053Z 00000KT 10SM FEW020 SCT250 26/24 A2996 RMK AO2 SLP145 T02610244
Dest. METAR: KRFD 171054Z 00000KT 10SM FEW250 13/11 A3015 RMK AO2 SLP207 T01330111
Freight Data
(for Aug 18, 2022)
Load Factor:
72%
Manifested Cargo: 67,785lbs
Financial History
Total Freight: 94,205lbs
Average Load: 0lbs/flt
Fuel Used: 20,300lbs
Avg. Fuel Used: 0lbs/flt
Fuel Expense: $10,150
Avg. Fuel Expense: $0
Avg. Fuel Cost: $0/lbs
Total Gross Income: $240,223
Pilot Pay: $259
Total Expenses: $29,146
Total Revenue: $200,330
Average Revenue: $0

Capitol Logistics 460




KIAH
George Bush Intcntl/Houston Airport
Houston, Texas
KRFD
Chicago/Rockford International Airport
Rockford, Illinois

Activity Log

Date Flight Route Aircraft Duration
06/27/2022 CPX2337 INDIE8 TPAKK DCT LIT J180 FTZ DCT BDF DCT PLL DCT B763 2h 12m